Time;durP1;ratioP1;P1;durP2;ratioP2;P2;SDS_P1;SDS_P2;PMS_P1;PMS_P2;Temp;Humidity;BMP_temperature;BMP_pressure;BME280_temperature;BME280_humidity;BME280_pressure;Samples;Min_cycle;Max_cycle;Signal;HPM_P1;HPM_P2
2023/12/11 00:00:48;;;;;;;6.20;1.77;;;10.50;81.20;;;;;;4891725;29;20478;-76
2023/12/11 00:03:16;;;;;;;6.33;0.80;;;10.50;81.40;;;;;;4906216;29;20450;-76
2023/12/11 00:05:44;;;;;;;4.90;1.27;;;10.50;81.40;;;;;;4892367;29;20521;-75
2023/12/11 00:08:14;;;;;;;4.73;1.20;;;10.50;81.50;;;;;;4894934;29;20454;-76
2023/12/11 00:10:42;;;;;;;4.50;0.80;;;10.50;81.50;;;;;;4890269;29;20459;-76
2023/12/11 00:13:10;;;;;;;5.67;1.13;;;10.60;81.50;;;;;;4905354;29;20462;-75
2023/12/11 00:15:39;;;;;;;5.83;1.30;;;10.60;81.60;;;;;;4890017;29;20497;-75
2023/12/11 00:18:08;;;;;;;4.87;1.37;;;10.60;81.70;;;;;;4895137;29;20525;-76
2023/12/11 00:20:36;;;;;;;7.17;1.33;;;10.60;81.80;;;;;;4887075;29;20466;-76
2023/12/11 00:23:04;;;;;;;3.93;0.90;;;10.60;81.90;;;;;;4895000;29;20473;-76
2023/12/11 00:25:33;;;;;;;4.43;0.87;;;10.60;82.00;;;;;;4896016;29;20449;-76
2023/12/11 00:28:01;;;;;;;4.43;0.70;;;10.60;82.10;;;;;;4896367;29;20549;-76
2023/12/11 00:30:30;;;;;;;4.53;0.70;;;10.60;82.00;;;;;;4890613;29;20577;-77
2023/12/11 00:32:58;;;;;;;5.47;1.20;;;10.60;82.10;;;;;;4895387;29;20462;-77
2023/12/11 00:35:26;;;;;;;6.90;0.80;;;10.50;82.20;;;;;;4885962;29;20538;-76
2023/12/11 00:37:54;;;;;;;5.03;1.50;;;10.50;82.30;;;;;;4894863;29;20466;-76
2023/12/11 00:40:22;;;;;;;3.80;1.00;;;10.50;82.40;;;;;;4909904;29;20458;-76
2023/12/11 00:42:52;;;;;;;5.13;0.97;;;10.50;82.50;;;;;;4897042;29;20495;-76
2023/12/11 00:45:20;;;;;;;3.83;1.03;;;10.50;82.50;;;;;;4907434;29;20489;-76
2023/12/11 00:47:48;;;;;;;4.37;0.80;;;10.50;82.50;;;;;;4893950;29;20474;-76
2023/12/11 00:50:16;;;;;;;3.97;0.70;;;10.50;82.50;;;;;;4902109;29;20453;-76
2023/12/11 00:52:45;;;;;;;3.33;0.70;;;10.50;82.60;;;;;;4902393;29;20461;-75
2023/12/11 00:55:13;;;;;;;5.10;0.90;;;10.40;82.60;;;;;;4894267;29;20485;-75
2023/12/11 00:57:41;;;;;;;4.83;1.17;;;10.40;82.80;;;;;;4894602;29;20478;-76
2023/12/11 01:00:11;;;;;;;3.93;0.73;;;10.40;82.90;;;;;;4895808;29;20465;-76
2023/12/11 01:02:41;;;;;;;5.27;1.00;;;10.40;82.90;;;;;;4894302;29;20834;-76
2023/12/11 01:05:09;;;;;;;4.40;0.90;;;10.40;82.90;;;;;;4894063;29;20462;-75
2023/12/11 01:07:37;;;;;;;4.80;1.00;;;10.40;82.80;;;;;;4894018;29;20488;-75
2023/12/11 01:10:07;;;;;;;10.60;1.40;;;10.40;82.90;;;;;;4895164;29;20465;-75
2023/12/11 01:12:36;;;;;;;5.63;1.30;;;10.40;83.00;;;;;;4895156;29;20880;-74
2023/12/11 01:15:05;;;;;;;4.33;0.90;;;10.40;83.00;;;;;;4895056;29;20573;-75
2023/12/11 01:17:34;;;;;;;4.03;1.10;;;10.40;83.00;;;;;;4909337;29;20544;-75
2023/12/11 01:20:08;;;;;;;2.90;0.70;;;10.40;83.00;;;;;;4896593;29;20469;-75
2023/12/11 01:22:37;;;;;;;8.00;1.20;;;10.30;83.10;;;;;;4887636;29;20455;-76
2023/12/11 01:25:06;;;;;;;5.63;1.07;;;10.40;83.10;;;;;;4886128;29;20454;-76
2023/12/11 01:27:34;;;;;;;5.43;1.10;;;10.40;83.10;;;;;;4894381;29;20470;-76
2023/12/11 01:30:03;;;;;;;7.10;1.00;;;10.40;83.20;;;;;;4893151;29;20894;-76
2023/12/11 01:32:31;;;;;;;6.37;1.07;;;10.40;83.20;;;;;;4888798;29;20489;-76
2023/12/11 01:35:00;;;;;;;6.93;1.00;;;10.40;83.30;;;;;;4895589;29;20490;-76
2023/12/11 01:37:28;;;;;;;4.60;1.03;;;10.40;83.30;;;;;;4888081;29;20490;-76
2023/12/11 01:39:56;;;;;;;4.67;1.17;;;10.40;83.40;;;;;;4893165;29;20461;-76
2023/12/11 01:42:24;;;;;;;5.50;0.97;;;10.40;83.50;;;;;;4893643;29;20500;-76
2023/12/11 01:44:52;;;;;;;4.70;1.23;;;10.40;83.40;;;;;;4890138;29;20474;-75
2023/12/11 01:47:20;;;;;;;5.93;1.10;;;10.40;83.40;;;;;;4899865;29;20470;-75
2023/12/11 01:49:48;;;;;;;4.90;1.07;;;10.40;83.40;;;;;;4893943;29;20461;-75
2023/12/11 01:52:18;;;;;;;4.43;1.40;;;10.40;83.50;;;;;;4894404;29;20470;-76
2023/12/11 01:54:47;;;;;;;3.97;1.00;;;10.40;83.60;;;;;;4908792;29;20474;-75
2023/12/11 01:57:16;;;;;;;3.63;0.93;;;10.40;83.60;;;;;;4889969;29;20860;-76
2023/12/11 01:59:45;;;;;;;3.77;1.10;;;10.40;83.60;;;;;;4892855;29;20980;-76
2023/12/11 02:02:19;;;;;;;3.70;1.10;;;10.40;83.70;;;;;;4892363;29;20482;-75
2023/12/11 02:04:49;;;;;;;4.93;1.40;;;10.40;83.70;;;;;;4895145;29;20517;-75
2023/12/11 02:07:19;;;;;;;3.50;0.90;;;10.50;83.70;;;;;;4890514;29;20895;-76
2023/12/11 02:09:47;;;;;;;4.80;1.30;;;10.50;83.70;;;;;;4892994;29;20457;-76
2023/12/11 02:12:15;;;;;;;5.00;1.37;;;10.50;83.70;;;;;;4890276;29;20473;-76
2023/12/11 02:14:43;;;;;;;3.53;1.13;;;10.50;83.70;;;;;;4907921;29;20512;-76
2023/12/11 02:17:11;;;;;;;6.10;1.40;;;10.50;83.70;;;;;;4892258;29;20469;-76
2023/12/11 02:19:39;;;;;;;5.13;1.10;;;10.50;83.70;;;;;;4897200;29;20462;-75
2023/12/11 02:22:07;;;;;;;3.93;1.10;;;10.50;83.70;;;;;;4893830;29;20521;-75
2023/12/11 02:24:43;;;;;;;5.20;1.20;;;10.50;83.70;;;;;;4890690;29;20466;-75
2023/12/11 02:27:12;;;;;;;5.27;1.13;;;10.50;83.70;;;;;;4891924;29;20584;-75
2023/12/11 02:29:41;;;;;;;4.37;1.23;;;10.50;83.70;;;;;;4895049;29;20458;-76
2023/12/11 02:32:09;;;;;;;3.90;1.00;;;10.50;83.70;;;;;;4888767;29;20987;-75
2023/12/11 02:34:37;;;;;;;5.07;1.40;;;10.50;83.80;;;;;;4892499;29;20457;-75
2023/12/11 02:37:05;;;;;;;3.67;1.27;;;10.50;83.80;;;;;;4892235;29;20498;-76
2023/12/11 02:39:34;;;;;;;5.53;1.30;;;10.50;83.80;;;;;;4892504;29;20529;-76
2023/12/11 02:42:02;;;;;;;5.33;1.13;;;10.50;83.80;;;;;;4891263;29;20462;-76
2023/12/11 02:44:32;;;;;;;6.23;1.13;;;10.50;83.80;;;;;;4890016;29;20466;-75
2023/12/11 02:46:59;;;;;;;4.23;1.50;;;10.50;83.80;;;;;;4890088;29;20488;-76
2023/12/11 02:49:27;;;;;;;4.10;1.47;;;10.50;83.80;;;;;;4892454;29;20470;-75
2023/12/11 02:51:55;;;;;;;5.90;1.50;;;10.50;83.80;;;;;;4907238;29;20465;-75
2023/12/11 02:54:23;;;;;;;4.47;1.30;;;10.50;83.70;;;;;;4908271;29;20474;-76
2023/12/11 02:56:51;;;;;;;3.60;1.20;;;10.50;83.70;;;;;;4886920;29;20489;-76
2023/12/11 02:59:19;;;;;;;8.60;1.17;;;10.40;83.70;;;;;;4892453;29;20482;-76
2023/12/11 03:01:48;;;;;;;5.67;1.50;;;10.50;83.70;;;;;;4900138;29;20485;-76
2023/12/11 03:04:17;;;;;;;4.83;1.50;;;10.40;83.80;;;;;;4897118;29;20514;-76
2023/12/11 03:06:45;;;;;;;6.83;1.80;;;10.40;83.80;;;;;;4889081;29;20522;-76
2023/12/11 03:09:13;;;;;;;9.40;1.27;;;10.40;83.70;;;;;;4891503;29;20790;-76
2023/12/11 03:11:41;;;;;;;5.40;1.83;;;10.40;83.80;;;;;;4893622;29;20462;-76
2023/12/11 03:14:09;;;;;;;5.73;1.20;;;10.40;83.90;;;;;;4890629;29;20477;-76
2023/12/11 03:16:37;;;;;;;7.07;1.67;;;10.40;83.90;;;;;;4887559;29;20577;-77
2023/12/11 03:19:06;;;;;;;5.50;1.33;;;10.40;83.80;;;;;;4909576;29;20473;-76
2023/12/11 03:21:34;;;;;;;4.57;1.47;;;10.40;83.90;;;;;;4890590;29;20466;-75
2023/12/11 03:24:02;;;;;;;6.70;1.70;;;10.40;83.80;;;;;;4889728;29;20470;-77
2023/12/11 03:26:31;;;;;;;4.67;1.37;;;10.40;83.80;;;;;;4892677;29;20837;-77
2023/12/11 03:28:59;;;;;;;5.27;1.77;;;10.40;83.80;;;;;;4892630;29;20469;-77
2023/12/11 03:31:27;;;;;;;6.60;1.47;;;10.40;83.80;;;;;;4890641;29;20486;-77
2023/12/11 03:33:54;;;;;;;7.80;1.77;;;10.40;83.80;;;;;;4898795;29;20474;-77
2023/12/11 03:36:24;;;;;;;7.70;1.43;;;10.50;83.80;;;;;;4894799;29;20494;-76
2023/12/11 03:38:52;;;;;;;4.10;1.40;;;10.50;83.70;;;;;;4888293;29;20490;-77
2023/12/11 03:41:19;;;;;;;7.53;1.43;;;10.40;83.70;;;;;;4893629;29;20454;-75
2023/12/11 03:43:47;;;;;;;5.13;1.30;;;10.50;83.70;;;;;;4891410;29;20466;-75
2023/12/11 03:46:15;;;;;;;5.13;1.60;;;10.50;83.70;;;;;;4892238;29;20476;-76
2023/12/11 03:48:43;;;;;;;8.23;1.93;;;10.50;83.70;;;;;;4904993;29;20462;-76
2023/12/11 03:51:11;;;;;;;6.93;1.40;;;10.50;83.70;;;;;;4892552;29;20533;-75
2023/12/11 03:53:41;;;;;;;4.17;1.30;;;10.50;83.70;;;;;;4892447;29;20446;-76
2023/12/11 03:56:09;;;;;;;6.03;1.30;;;10.50;83.70;;;;;;4898105;29;20579;-75
2023/12/11 03:58:37;;;;;;;4.60;1.27;;;10.50;83.70;;;;;;4911670;29;20461;-75
2023/12/11 04:01:05;;;;;;;5.40;1.43;;;10.50;83.70;;;;;;4897794;29;20500;-75
2023/12/11 04:03:33;;;;;;;7.30;1.67;;;10.50;83.70;;;;;;4899158;29;20557;-75
2023/12/11 04:06:01;;;;;;;4.90;1.63;;;10.50;83.60;;;;;;4896562;29;20465;-75
2023/12/11 04:08:30;;;;;;;9.07;1.33;;;10.50;83.70;;;;;;4900692;29;20474;-75
2023/12/11 04:10:59;;;;;;;3.77;1.10;;;10.50;83.70;;;;;;4897883;29;20959;-76
2023/12/11 04:13:27;;;;;;;5.30;1.33;;;10.50;83.80;;;;;;4890038;29;20471;-75
2023/12/11 04:15:55;;;;;;;10.73;2.00;;;10.50;83.80;;;;;;4894884;29;20490;-75
2023/12/11 04:18:23;;;;;;;6.20;1.70;;;10.50;83.80;;;;;;4897252;29;20469;-75
2023/12/11 04:20:51;;;;;;;7.07;1.87;;;10.50;83.70;;;;;;4912613;29;20477;-75
2023/12/11 04:23:18;;;;;;;9.50;1.90;;;10.50;83.70;;;;;;4897810;29;20827;-75
2023/12/11 04:25:46;;;;;;;7.40;1.77;;;10.50;83.70;;;;;;4904744;29;20795;-75
2023/12/11 04:28:16;;;;;;;6.63;1.80;;;10.50;83.80;;;;;;4897430;29;20545;-75
2023/12/11 04:30:44;;;;;;;7.50;2.00;;;10.50;83.80;;;;;;4896380;29;20482;-75
2023/12/11 04:33:12;;;;;;;5.50;1.70;;;10.50;83.80;;;;;;4897947;29;20473;-75
2023/12/11 04:35:40;;;;;;;5.33;1.57;;;10.50;83.80;;;;;;4895096;29;20453;-75
2023/12/11 04:38:08;;;;;;;8.20;1.30;;;10.50;83.80;;;;;;4897451;29;20460;-75
2023/12/11 04:40:37;;;;;;;5.43;1.23;;;10.50;83.80;;;;;;4902506;29;20458;-75
2023/12/11 04:43:05;;;;;;;7.93;1.87;;;10.60;83.60;;;;;;4895910;29;20966;-75
2023/12/11 04:45:36;;;;;;;4.10;1.30;;;10.60;83.60;;;;;;4894745;29;20450;-75
2023/12/11 04:48:04;;;;;;;8.80;1.67;;;10.60;83.60;;;;;;4897622;29;20476;-75
2023/12/11 04:50:32;;;;;;;7.27;1.43;;;10.60;83.50;;;;;;4899101;29;20465;-76
2023/12/11 04:53:00;;;;;;;5.40;1.83;;;10.60;83.50;;;;;;4899660;29;20931;-76
2023/12/11 04:55:28;;;;;;;6.13;1.30;;;10.60;83.50;;;;;;4914869;29;20454;-76
2023/12/11 04:57:56;;;;;;;7.17;1.70;;;10.70;83.50;;;;;;4895894;29;20600;-76
2023/12/11 05:00:25;;;;;;;7.00;2.03;;;10.60;83.50;;;;;;4896610;29;20472;-76
2023/12/11 05:02:54;;;;;;;7.37;1.90;;;10.70;83.50;;;;;;4896952;29;20949;-76
2023/12/11 05:05:22;;;;;;;5.00;1.70;;;10.70;83.50;;;;;;4898003;29;20573;-76
2023/12/11 05:07:50;;;;;;;7.37;1.87;;;10.70;83.50;;;;;;4894789;29;20494;-76
2023/12/11 05:10:18;;;;;;;5.20;1.50;;;10.60;83.50;;;;;;4893352;29;20458;-76
2023/12/11 05:12:46;;;;;;;5.93;1.73;;;10.70;83.50;;;;;;4888322;29;20479;-76
2023/12/11 05:15:14;;;;;;;5.20;1.20;;;10.70;83.50;;;;;;4893352;29;20490;-76
2023/12/11 05:17:42;;;;;;;7.80;1.50;;;10.70;83.50;;;;;;4894635;29;20497;-76
2023/12/11 05:20:12;;;;;;;11.87;1.87;;;10.70;83.50;;;;;;4896766;29;20470;-76
2023/12/11 05:22:41;;;;;;;6.17;1.60;;;10.70;83.40;;;;;;4892647;29;20780;-76
2023/12/11 05:25:09;;;;;;;10.27;2.00;;;10.70;83.40;;;;;;4892733;29;20465;-75
2023/12/11 05:27:37;;;;;;;6.87;1.80;;;10.70;83.50;;;;;;4890149;29;20473;-76
2023/12/11 05:30:06;;;;;;;9.80;1.93;;;10.70;83.50;;;;;;4893468;29;20492;-76
2023/12/11 05:32:34;;;;;;;7.07;1.73;;;10.70;83.50;;;;;;4890376;29;20938;-76
2023/12/11 05:35:04;;;;;;;9.77;1.70;;;10.70;83.50;;;;;;4892690;29;20865;-76
2023/12/11 05:37:33;;;;;;;10.93;2.10;;;10.70;83.50;;;;;;4897618;29;20492;-76
2023/12/11 05:40:02;;;;;;;5.20;1.80;;;10.70;83.50;;;;;;4891772;29;20470;-76
2023/12/11 05:42:50;;;;;;;7.43;1.63;;;10.70;83.50;;;;;;4909747;29;20481;-76
2023/12/11 05:45:18;;;;;;;7.63;2.17;;;10.70;83.50;;;;;;4898105;29;20553;-76
2023/12/11 05:47:46;;;;;;;5.97;1.83;;;10.80;83.50;;;;;;4895524;29;20477;-76
2023/12/11 05:50:14;;;;;;;7.30;2.20;;;10.80;83.50;;;;;;4894931;29;20469;-76
2023/12/11 05:52:44;;;;;;;5.40;1.60;;;10.80;83.50;;;;;;4893017;29;20462;-76
2023/12/11 05:55:12;;;;;;;5.93;2.10;;;10.80;83.50;;;;;;4894235;29;20469;-76
2023/12/11 05:57:40;;;;;;;8.40;2.00;;;10.80;83.50;;;;;;4895248;29;20517;-75
2023/12/11 06:00:11;;;;;;;5.60;2.63;;;10.80;83.40;;;;;;4890887;29;20462;-75
2023/12/11 06:02:40;;;;;;;6.17;1.60;;;10.80;83.40;;;;;;4891153;29;20991;-76
2023/12/11 06:05:09;;;;;;;7.93;1.60;;;10.70;83.50;;;;;;4895077;29;20450;-76
2023/12/11 06:07:37;;;;;;;4.33;1.53;;;10.70;83.60;;;;;;4893529;29;20465;-75
2023/12/11 06:10:07;;;;;;;8.77;2.30;;;10.70;83.70;;;;;;4891124;29;20482;-75
2023/12/11 06:12:35;;;;;;;5.50;1.77;;;10.70;83.80;;;;;;4893799;29;20842;-76
2023/12/11 06:15:03;;;;;;;9.43;2.13;;;10.70;83.80;;;;;;4891352;29;20466;-75
2023/12/11 06:17:31;;;;;;;6.50;1.70;;;10.70;83.70;;;;;;4890717;29;21002;-75
2023/12/11 06:20:00;;;;;;;8.67;1.97;;;10.70;83.70;;;;;;4890435;29;20492;-75
2023/12/11 06:22:28;;;;;;;8.60;2.00;;;10.70;83.70;;;;;;4894988;29;20788;-75
2023/12/11 06:24:56;;;;;;;7.60;1.50;;;10.70;83.70;;;;;;4891262;29;20469;-75
2023/12/11 06:27:27;;;;;;;6.73;1.73;;;10.70;83.80;;;;;;4893871;29;20542;-75
2023/12/11 06:29:56;;;;;;;6.03;1.97;;;10.70;83.80;;;;;;4892972;29;20498;-75
2023/12/11 06:32:24;;;;;;;6.70;1.93;;;10.70;83.80;;;;;;4893765;29;20486;-75
2023/12/11 06:34:52;;;;;;;8.30;2.20;;;10.70;83.80;;;;;;4889993;29;20494;-75
2023/12/11 06:37:20;;;;;;;9.90;2.20;;;10.60;83.80;;;;;;4893841;29;20482;-75
2023/12/11 06:39:48;;;;;;;6.87;2.03;;;10.60;83.90;;;;;;4909101;29;20553;-75
2023/12/11 06:42:16;;;;;;;7.53;2.10;;;10.60;83.90;;;;;;4893919;29;20839;-75
2023/12/11 06:44:46;;;;;;;9.40;1.87;;;10.60;84.00;;;;;;4888793;29;20470;-75
2023/12/11 06:47:14;;;;;;;6.10;1.50;;;10.60;84.00;;;;;;4892262;29;20466;-76
2023/12/11 06:49:44;;;;;;;6.30;1.90;;;10.60;84.10;;;;;;4891829;29;20454;-75
2023/12/11 06:52:12;;;;;;;5.20;1.50;;;10.60;84.10;;;;;;4894587;29;20473;-75
2023/12/11 06:54:40;;;;;;;5.60;1.70;;;10.60;84.20;;;;;;4892212;29;20481;-75
2023/12/11 06:57:08;;;;;;;5.40;1.70;;;10.60;84.40;;;;;;4890501;29;20454;-75
2023/12/11 06:59:36;;;;;;;7.50;1.87;;;10.60;84.40;;;;;;4892339;29;20454;-75
2023/12/11 07:02:06;;;;;;;6.40;1.73;;;10.60;84.50;;;;;;4889342;29;20589;-75
2023/12/11 07:04:35;;;;;;;9.33;1.90;;;10.60;84.50;;;;;;4890037;29;20558;-75
2023/12/11 07:07:04;;;;;;;5.20;1.60;;;10.60;84.50;;;;;;4907222;29;20489;-75
2023/12/11 07:09:32;;;;;;;4.90;1.63;;;10.70;84.60;;;;;;4889986;29;20549;-75
2023/12/11 07:12:01;;;;;;;3.80;1.23;;;10.70;84.70;;;;;;4888541;29;20466;-75
2023/12/11 07:14:29;;;;;;;5.87;1.50;;;10.70;84.70;;;;;;4890163;29;20462;-75
2023/12/11 07:16:57;;;;;;;6.77;1.67;;;10.70;84.70;;;;;;4894352;29;20541;-75
2023/12/11 07:19:26;;;;;;;6.73;1.50;;;10.70;84.80;;;;;;4895000;29;20508;-75
2023/12/11 07:21:54;;;;;;;4.20;1.43;;;10.70;84.80;;;;;;4908658;29;20472;-75
2023/12/11 07:24:22;;;;;;;5.27;1.30;;;10.70;84.90;;;;;;4902904;29;20465;-75
2023/12/11 07:26:50;;;;;;;6.47;1.50;;;10.70;84.90;;;;;;4893226;29;20454;-76
2023/12/11 07:29:18;;;;;;;6.70;1.47;;;10.70;85.00;;;;;;4886991;29;20945;-75
2023/12/11 07:31:46;;;;;;;4.80;1.33;;;10.80;85.00;;;;;;4888538;29;20481;-75
2023/12/11 07:34:14;;;;;;;7.70;1.37;;;10.80;85.00;;;;;;4889656;29;20458;-75
2023/12/11 07:36:44;;;;;;;5.80;1.30;;;10.80;84.90;;;;;;4890994;29;20470;-75
2023/12/11 07:39:12;;;;;;;6.93;1.40;;;10.80;84.80;;;;;;4890892;29;20820;-75
2023/12/11 07:41:40;;;;;;;6.60;1.37;;;10.90;84.80;;;;;;4891615;29;20493;-75
2023/12/11 07:44:08;;;;;;;5.67;1.20;;;10.90;84.80;;;;;;4892646;29;20465;-75
2023/12/11 07:46:36;;;;;;;4.70;1.10;;;10.90;84.80;;;;;;4886981;29;20489;-75
2023/12/11 07:49:07;;;;;;;6.10;2.10;;;10.90;84.80;;;;;;4892684;29;20533;-75
2023/12/11 07:51:35;;;;;;;4.57;1.57;;;10.90;84.70;;;;;;4889629;29;20468;-75
2023/12/11 07:54:04;;;;;;;4.63;1.10;;;11.00;84.60;;;;;;4889542;29;20564;-75
2023/12/11 07:56:32;;;;;;;7.20;1.17;;;11.00;84.60;;;;;;4892005;29;20453;-75
2023/12/11 07:59:00;;;;;;;10.33;1.33;;;11.00;84.60;;;;;;4887751;29;20834;-75
2023/12/11 08:01:31;;;;;;;5.83;1.27;;;11.00;84.50;;;;;;4887906;29;20481;-75
2023/12/11 08:03:59;;;;;;;4.50;1.50;;;11.10;84.50;;;;;;4890499;29;20468;-75
2023/12/11 08:06:28;;;;;;;5.53;1.63;;;11.10;84.40;;;;;;4891476;29;20466;-75
2023/12/11 08:08:55;;;;;;;6.63;1.43;;;11.10;84.30;;;;;;4890082;29;20450;-75
2023/12/11 08:11:27;;;;;;;6.77;1.43;;;11.00;84.30;;;;;;4894459;29;20459;-75
2023/12/11 08:13:55;;;;;;;8.87;1.60;;;11.10;84.30;;;;;;4889670;29;20477;-75
2023/12/11 08:16:24;;;;;;;9.07;1.37;;;11.10;84.40;;;;;;4892996;29;20462;-75
2023/12/11 08:18:52;;;;;;;4.87;1.37;;;11.10;84.30;;;;;;4890712;29;20871;-75
2023/12/11 08:21:20;;;;;;;6.00;1.70;;;11.10;84.20;;;;;;4889459;29;20484;-75
2023/12/11 08:23:48;;;;;;;6.10;1.47;;;11.20;84.20;;;;;;4894671;29;20470;-75
2023/12/11 08:26:18;;;;;;;7.47;1.30;;;11.20;84.20;;;;;;4890658;29;20458;-75
2023/12/11 08:28:49;;;;;;;5.13;1.30;;;11.20;84.10;;;;;;4888845;29;21098;-75
2023/12/11 08:31:17;;;;;;;7.63;1.50;;;11.20;84.10;;;;;;4888319;29;20819;-75
2023/12/11 08:33:46;;;;;;;5.30;1.40;;;11.20;84.10;;;;;;4892933;29;20467;-75
2023/12/11 08:36:14;;;;;;;6.80;1.67;;;11.20;84.20;;;;;;4889752;29;20472;-75
2023/12/11 08:38:42;;;;;;;5.97;1.77;;;11.20;84.20;;;;;;4887485;29;20827;-75
2023/12/11 08:41:09;;;;;;;4.97;1.87;;;11.30;84.10;;;;;;4890612;29;20464;-75
2023/12/11 08:43:37;;;;;;;7.43;1.63;;;11.30;84.00;;;;;;4893356;29;20466;-75
2023/12/11 08:46:07;;;;;;;6.10;1.73;;;11.30;83.90;;;;;;4891340;29;20484;-75
2023/12/11 08:48:35;;;;;;;8.33;1.47;;;11.30;84.00;;;;;;4893219;29;20789;-75
2023/12/11 08:51:03;;;;;;;17.33;2.03;;;11.30;83.90;;;;;;4892176;29;20958;-75
2023/12/11 08:53:31;;;;;;;8.83;1.73;;;11.30;83.80;;;;;;4892676;29;20484;-75
2023/12/11 08:55:59;;;;;;;6.80;1.73;;;11.20;83.70;;;;;;4886774;29;20465;-75
2023/12/11 08:58:27;;;;;;;8.13;2.10;;;11.30;83.70;;;;;;4888579;29;20494;-75
2023/12/11 09:00:55;;;;;;;6.47;1.73;;;11.30;83.70;;;;;;4891633;29;20489;-75
2023/12/11 09:03:25;;;;;;;6.70;1.40;;;11.20;83.50;;;;;;4891889;29;20461;-75
2023/12/11 09:05:53;;;;;;;6.50;1.67;;;11.20;83.40;;;;;;4894771;29;20472;-75
2023/12/11 09:08:24;;;;;;;8.73;1.90;;;11.30;83.30;;;;;;4894266;29;20462;-75
2023/12/11 09:10:53;;;;;;;8.03;1.60;;;11.20;83.10;;;;;;4897661;29;20462;-75
2023/12/11 09:13:21;;;;;;;5.17;1.60;;;11.30;82.90;;;;;;4893261;29;20771;-75
2023/12/11 09:15:52;;;;;;;8.60;1.80;;;11.30;82.90;;;;;;4894528;29;21160;-75
2023/12/11 09:18:20;;;;;;;8.57;2.00;;;11.30;82.80;;;;;;4895072;29;20474;-75
2023/12/11 09:20:49;;;;;;;9.27;1.50;;;11.30;82.70;;;;;;4895366;29;20573;-75
2023/12/11 09:23:17;;;;;;;5.90;1.53;;;11.30;82.70;;;;;;4892457;29;20473;-75
2023/12/11 09:25:45;;;;;;;12.07;2.67;;;11.30;82.40;;;;;;4898543;29;20485;-75
2023/12/11 09:28:14;;;;;;;12.00;1.90;;;11.30;82.20;;;;;;4888852;29;20461;-76
2023/12/11 09:30:42;;;;;;;7.27;1.80;;;11.30;82.00;;;;;;4892600;29;20549;-75
2023/12/11 09:33:10;;;;;;;12.10;1.90;;;11.30;82.00;;;;;;4890843;29;20859;-75
2023/12/11 09:35:41;;;;;;;8.53;1.57;;;11.30;81.90;;;;;;4892802;29;20542;-76
2023/12/11 09:38:11;;;;;;;9.20;2.10;;;11.30;81.70;;;;;;4893779;29;20471;-75
2023/12/11 09:40:39;;;;;;;10.83;2.70;;;11.30;81.60;;;;;;4910765;29;20605;-75
2023/12/11 09:43:09;;;;;;;7.53;1.67;;;11.40;81.40;;;;;;4903995;29;20940;-75
2023/12/11 09:45:38;;;;;;;9.30;1.90;;;11.40;81.30;;;;;;4894254;29;20874;-75
2023/12/11 09:48:07;;;;;;;7.67;1.70;;;11.40;81.20;;;;;;4893944;29;20533;-75
2023/12/11 09:50:42;;;;;;;10.97;2.37;;;11.40;81.00;;;;;;4891212;29;20462;-75
2023/12/11 09:53:11;;;;;;;7.70;1.80;;;11.40;80.80;;;;;;4893589;29;20761;-75
2023/12/11 09:55:39;;;;;;;11.73;2.70;;;11.40;80.70;;;;;;4892188;29;20470;-75
2023/12/11 09:58:08;;;;;;;12.27;2.93;;;11.50;80.50;;;;;;4894718;29;20480;-75
2023/12/11 10:00:37;;;;;;;7.70;1.90;;;11.50;80.30;;;;;;4894965;29;21131;-75
2023/12/11 10:03:07;;;;;;;9.77;1.83;;;11.50;80.20;;;;;;4894243;29;20458;-75
2023/12/11 10:05:36;;;;;;;9.67;1.93;;;11.50;80.20;;;;;;4895101;29;20549;-75
2023/12/11 10:08:05;;;;;;;8.33;1.60;;;11.60;80.00;;;;;;4894352;29;20454;-75
2023/12/11 10:10:38;;;;;;;8.40;2.03;;;11.60;79.70;;;;;;4894609;29;21116;-75
2023/12/11 10:13:06;;;;;;;10.20;1.90;;;11.70;79.60;;;;;;4890562;29;20595;-75
2023/12/11 10:15:36;;;;;;;9.17;2.33;;;11.70;79.40;;;;;;4898334;29;20470;-75
2023/12/11 10:18:08;;;;;;;8.70;1.60;;;11.70;79.00;;;;;;4891800;29;20482;-75
2023/12/11 10:20:38;;;;;;;11.87;2.10;;;11.80;78.90;;;;;;4893296;29;20569;-76
2023/12/11 10:23:15;;;;;;;9.50;2.03;;;11.80;78.70;;;;;;4893989;29;20891;-75
2023/12/11 10:25:48;;;;;;;8.07;1.90;;;11.80;78.50;;;;;;4892288;29;20544;-75
2023/12/11 10:28:17;;;;;;;7.47;1.73;;;11.90;78.20;;;;;;4895214;29;20462;-75
2023/12/11 10:30:53;;;;;;;12.93;1.63;;;11.90;77.90;;;;;;4905445;29;20474;-75
2023/12/11 10:33:23;;;;;;;8.50;1.50;;;11.90;77.90;;;;;;4893590;29;20566;-75
2023/12/11 10:35:52;;;;;;;9.30;1.80;;;11.90;77.80;;;;;;4908977;29;20987;-76
2023/12/11 10:38:22;;;;;;;8.07;2.20;;;11.90;77.50;;;;;;4894807;29;20948;-75
2023/12/11 10:40:53;;;;;;;13.30;2.67;;;11.90;77.40;;;;;;4891720;29;21267;-75
2023/12/11 10:43:21;;;;;;;14.83;2.03;;;11.90;77.20;;;;;;4894397;29;20459;-75
2023/12/11 10:45:49;;;;;;;8.60;2.00;;;11.90;77.00;;;;;;4892204;29;20477;-76
2023/12/11 10:48:20;;;;;;;11.57;1.97;;;11.90;76.80;;;;;;4893029;29;20453;-75
2023/12/11 10:50:50;;;;;;;8.50;2.60;;;11.90;76.60;;;;;;4890472;29;20916;-75
2023/12/11 10:53:18;;;;;;;16.63;2.93;;;11.90;76.60;;;;;;4893720;29;20881;-75
2023/12/11 10:55:49;;;;;;;11.83;2.20;;;11.90;76.60;;;;;;4893660;29;20557;-75
2023/12/11 10:58:20;;;;;;;7.30;2.20;;;11.90;76.50;;;;;;4909892;29;20485;-75
2023/12/11 11:00:48;;;;;;;12.60;2.00;;;12.00;76.60;;;;;;4892263;29;20478;-75
2023/12/11 11:03:17;;;;;;;9.93;2.43;;;12.00;76.40;;;;;;4888828;29;20458;-75
2023/12/11 11:05:51;;;;;;;8.60;2.20;;;12.10;76.40;;;;;;4890795;29;20477;-75
2023/12/11 11:08:27;;;;;;;9.43;2.23;;;12.10;76.20;;;;;;4892383;29;20461;-75
2023/12/11 11:11:02;;;;;;;9.30;2.37;;;12.20;76.00;;;;;;4889313;29;20980;-75
2023/12/11 11:13:37;;;;;;;10.10;2.43;;;12.20;75.90;;;;;;4888687;29;20510;-75
2023/12/11 11:16:06;;;;;;;12.00;3.40;;;12.20;75.90;;;;;;4889485;29;20457;-75
2023/12/11 11:19:05;;;;;;;10.47;2.03;;;12.20;75.90;;;;;;4901383;29;20877;-75
2023/12/11 11:21:33;;;;;;;12.47;2.37;;;12.20;75.80;;;;;;4907376;29;20497;-75
2023/12/11 11:24:01;;;;;;;8.93;1.90;;;12.20;75.80;;;;;;4891074;29;20468;-75
2023/12/11 11:26:34;;;;;;;12.67;2.93;;;12.20;75.80;;;;;;4904938;29;20462;-75
2023/12/11 11:29:05;;;;;;;12.03;2.20;;;12.20;75.70;;;;;;4891530;29;20469;-75
2023/12/11 11:31:51;;;;;;;11.03;1.90;;;12.20;75.60;;;;;;4905012;29;20489;-75
2023/12/11 11:34:44;;;;;;;13.90;2.00;;;12.20;75.60;;;;;;4891075;29;20473;-75
2023/12/11 11:37:17;;;;;;;55.37;29.30;;;12.20;75.50;;;;;;4906954;29;20673;-75
2023/12/11 11:39:58;;;;;;;6.80;2.30;;;12.20;75.30;;;;;;4887957;29;20465;-75
2023/12/11 11:42:27;;;;;;;10.03;1.83;;;12.20;75.10;;;;;;4891261;29;20462;-75
2023/12/11 11:44:58;;;;;;;13.23;1.60;;;12.30;75.00;;;;;;4889760;29;20479;-75
2023/12/11 11:47:26;;;;;;;10.90;2.70;;;12.20;74.90;;;;;;4889890;29;20474;-75
2023/12/11 11:49:54;;;;;;;6.53;1.87;;;12.20;74.80;;;;;;4892283;29;20461;-75
2023/12/11 11:52:26;;;;;;;14.27;2.03;;;12.20;74.70;;;;;;4890279;29;20458;-75
2023/12/11 11:54:58;;;;;;;12.97;2.60;;;12.20;74.60;;;;;;4890663;29;20798;-75
2023/12/11 11:57:30;;;;;;;8.60;2.00;;;12.20;74.60;;;;;;4892374;29;20458;-76
2023/12/11 11:59:59;;;;;;;9.50;2.03;;;12.20;74.50;;;;;;4891043;29;20557;-75
2023/12/11 12:02:27;;;;;;;10.27;2.23;;;12.20;74.40;;;;;;4897118;29;20489;-75
2023/12/11 12:04:55;;;;;;;19.47;2.70;;;12.20;74.40;;;;;;4892010;29;20552;-74
2023/12/11 12:07:23;;;;;;;12.47;2.80;;;12.20;74.40;;;;;;4891733;29;20454;-75
2023/12/11 12:09:52;;;;;;;8.80;1.93;;;12.20;74.40;;;;;;4891345;29;20469;-75
2023/12/11 12:12:21;;;;;;;12.70;1.90;;;12.20;74.30;;;;;;4886782;29;20462;-75
2023/12/11 12:15:02;;;;;;;12.13;3.20;;;12.20;74.30;;;;;;4908433;29;20457;-75
2023/12/11 12:17:30;;;;;;;6.90;2.10;;;12.20;74.30;;;;;;4897278;29;20480;-75
2023/12/11 12:19:58;;;;;;;13.40;2.40;;;12.20;74.30;;;;;;4895090;29;20835;-75
2023/12/11 12:22:27;;;;;;;10.73;2.20;;;12.20;74.30;;;;;;4890808;29;20545;-75
2023/12/11 12:24:56;;;;;;;8.80;2.10;;;12.20;74.30;;;;;;4895709;29;20470;-75
2023/12/11 12:27:26;;;;;;;10.10;2.87;;;12.20;74.10;;;;;;4896015;29;20549;-75
2023/12/11 12:29:55;;;;;;;8.90;2.53;;;12.20;74.10;;;;;;4893643;29;20525;-75
2023/12/11 12:32:25;;;;;;;14.23;2.00;;;12.20;74.10;;;;;;4896038;29;20566;-75
2023/12/11 12:34:55;;;;;;;10.80;2.17;;;12.20;74.00;;;;;;4907309;29;20461;-75
2023/12/11 12:37:23;;;;;;;12.27;2.97;;;12.20;74.10;;;;;;4897141;29;20501;-75
2023/12/11 12:39:56;;;;;;;11.07;3.00;;;12.20;74.00;;;;;;4892930;29;20477;-75
2023/12/11 12:42:30;;;;;;;13.37;2.40;;;12.20;74.10;;;;;;4896686;29;20497;-75
2023/12/11 12:44:58;;;;;;;10.80;2.67;;;12.20;74.10;;;;;;4895356;29;20468;-75
2023/12/11 12:47:27;;;;;;;13.77;3.50;;;12.20;74.10;;;;;;4896869;29;20477;-75
2023/12/11 12:49:56;;;;;;;16.80;2.80;;;12.20;74.10;;;;;;4895828;29;20545;-75
2023/12/11 12:52:26;;;;;;;11.30;2.47;;;12.20;74.10;;;;;;4895518;29;20453;-75
2023/12/11 12:54:55;;;;;;;15.80;3.00;;;12.20;74.20;;;;;;4893893;29;20774;-75